createdAt,value
2022-08-05T00:02:18.574Z,1.90
2022-08-05T00:08:35.216Z,2.33
2022-08-05T00:11:30.394Z,2.35
2022-08-05T00:14:28.982Z,2.40
2022-08-05T00:17:18.715Z,2.30
2022-08-05T00:20:09.032Z,2.25
2022-08-05T00:22:59.693Z,2.50
2022-08-05T00:25:50.742Z,2.30
2022-08-05T00:28:43.599Z,2.17
2022-08-05T00:31:53.635Z,2.17
2022-08-05T00:35:04.726Z,2.33
2022-08-05T00:37:53.804Z,2.20
2022-08-05T00:40:51.993Z,2.30
2022-08-05T00:43:46.863Z,2.55
2022-08-05T00:46:42.463Z,2.10
2022-08-05T00:49:32.684Z,1.92
2022-08-05T00:52:28.355Z,1.98
2022-08-05T00:55:17.200Z,2.17
2022-08-05T00:58:07.167Z,2.33
2022-08-05T01:01:00.813Z,2.05
2022-08-05T01:03:50.046Z,2.13
2022-08-05T01:06:38.260Z,2.42
2022-08-05T01:09:30.342Z,2.30
2022-08-05T01:12:22.531Z,2.53
2022-08-05T01:15:17.168Z,2.60
2022-08-05T01:18:27.509Z,2.50
2022-08-05T01:21:38.144Z,2.38
2022-08-05T01:24:52.898Z,2.55
2022-08-05T01:27:58.320Z,2.38
2022-08-05T01:30:55.178Z,2.58
2022-08-05T01:33:49.203Z,2.45
2022-08-05T01:36:48.301Z,2.72
2022-08-05T01:39:46.341Z,2.50
2022-08-05T01:42:39.027Z,2.80
2022-08-05T01:45:34.953Z,2.40
2022-08-05T01:48:34.688Z,2.38
2022-08-05T01:51:24.252Z,2.42
2022-08-05T01:54:20.275Z,2.42
2022-08-05T01:58:09.315Z,2.67
2022-08-05T02:00:30.278Z,2.75
2022-08-05T02:03:31.892Z,2.63
2022-08-05T02:06:33.661Z,3.08
2022-08-05T02:09:27.269Z,2.60
2022-08-05T02:12:20.972Z,2.50
2022-08-05T02:15:14.174Z,3.03
2022-08-05T02:18:28.404Z,3.10
2022-08-05T02:21:27.390Z,3.20
2022-08-05T02:24:23.722Z,3.03
2022-08-05T02:27:13.510Z,3.30
2022-08-05T02:30:02.823Z,3.20
2022-08-05T02:32:55.412Z,2.83
2022-08-05T02:35:51.013Z,3.20
2022-08-05T02:38:53.470Z,3.15
2022-08-05T02:42:00.805Z,3.30
2022-08-05T02:44:50.050Z,4.30
2022-08-05T02:48:07.458Z,3.47
2022-08-05T02:50:51.778Z,4.95
2022-08-05T02:53:41.841Z,4.53
2022-08-05T02:56:31.948Z,5.40
2022-08-05T02:59:21.827Z,5.50
2022-08-05T03:02:18.455Z,6.38
2022-08-05T03:05:09.757Z,6.97
2022-08-05T03:08:00.705Z,6.97
2022-08-05T03:11:53.517Z,7.00
2022-08-05T03:14:03.047Z,7.22
2022-08-05T03:16:53.316Z,7.50
2022-08-05T03:19:41.908Z,8.68
2022-08-05T03:22:32.579Z,8.52
2022-08-05T03:28:32.082Z,8.70
2022-08-05T03:31:55.623Z,9.63
2022-08-05T03:34:30.632Z,10.43
2022-08-05T03:37:19.934Z,11.07
2022-08-05T03:40:12.110Z,11.98
2022-08-05T03:43:15.711Z,13.55
2022-08-05T03:46:08.984Z,12.93
2022-08-05T03:48:59.237Z,13.45
2022-08-05T03:52:38.977Z,14.27
2022-08-05T03:56:09.563Z,14.00
2022-08-05T03:58:18.865Z,14.15
2022-08-05T04:01:11.214Z,14.90
2022-08-05T04:04:10.381Z,14.60
2022-08-05T04:07:00.081Z,14.30
2022-08-05T04:09:53.779Z,13.75
2022-08-05T04:15:32.808Z,13.02
2022-08-05T04:18:25.507Z,11.70
2022-08-05T04:22:05.147Z,10.63
2022-08-05T04:24:23.427Z,10.50
2022-08-05T04:27:16.099Z,9.55
2022-08-05T04:30:08.536Z,8.35
2022-08-05T04:32:57.025Z,8.95
2022-08-05T04:36:16.538Z,8.77
2022-08-05T04:38:55.650Z,9.10
2022-08-05T04:41:45.634Z,8.43
2022-08-05T04:44:33.983Z,8.07
2022-08-05T04:47:22.325Z,8.57
2022-08-05T04:50:11.762Z,8.02
2022-08-05T04:53:00.046Z,7.85
2022-08-05T04:56:15.531Z,8.07
2022-08-05T04:58:58.769Z,7.75
2022-08-05T05:02:35.162Z,8.18
2022-08-05T05:05:01.636Z,8.80
2022-08-05T05:07:52.824Z,8.43
2022-08-05T05:10:47.270Z,8.13
2022-08-05T05:13:45.579Z,8.75
2022-08-05T05:16:33.800Z,9.88
2022-08-05T05:19:23.643Z,10.15
2022-08-05T05:22:24.169Z,10.13
2022-08-05T05:25:17.009Z,9.65
2022-08-05T05:28:06.111Z,9.20
2022-08-05T05:30:55.846Z,9.38
2022-08-05T05:33:59.252Z,9.45
2022-08-05T05:36:48.312Z,9.00
2022-08-05T05:39:39.467Z,9.02
2022-08-05T05:42:31.387Z,9.88
2022-08-05T05:45:20.504Z,10.48
2022-08-05T05:48:10.760Z,10.05
2022-08-05T05:51:13.060Z,12.35
2022-08-05T05:54:04.185Z,12.40
2022-08-05T05:56:52.359Z,12.65
2022-08-05T05:59:41.173Z,13.32
2022-08-05T06:02:36.795Z,12.30
2022-08-05T06:05:27.230Z,13.23
2022-08-05T06:08:15.410Z,14.43
2022-08-05T06:11:21.027Z,13.13
2022-08-05T06:14:09.282Z,14.15
2022-08-05T06:16:58.646Z,13.63
2022-08-05T06:19:56.372Z,13.27
2022-08-05T06:26:12.644Z,13.73
2022-08-05T06:28:45.083Z,12.88
2022-08-05T06:31:34.296Z,14.73
2022-08-05T06:34:22.476Z,15.35
2022-08-05T06:37:14.934Z,13.80
2022-08-05T06:40:05.463Z,13.95
2022-08-05T06:42:53.685Z,13.65
2022-08-05T06:46:03.290Z,13.40
2022-08-05T06:48:56.437Z,12.70
2022-08-05T06:51:46.734Z,12.93
2022-08-05T06:54:34.963Z,13.48
2022-08-05T06:58:03.003Z,12.90
2022-08-05T07:00:34.031Z,12.57
2022-08-05T07:03:27.956Z,12.95
2022-08-05T07:06:21.232Z,13.05
2022-08-05T07:09:09.418Z,12.52
2022-08-05T07:12:00.626Z,12.18
2022-08-05T07:15:08.779Z,14.23
2022-08-05T07:18:08.438Z,12.93
2022-08-05T07:20:58.507Z,12.80
2022-08-05T07:23:53.054Z,13.05
2022-08-05T07:26:42.752Z,13.93
2022-08-05T07:30:27.962Z,12.52
2022-08-05T07:32:40.887Z,14.13
2022-08-05T07:36:02.439Z,12.90
2022-08-05T07:38:43.458Z,14.30
2022-08-05T07:42:13.011Z,13.27
2022-08-05T07:44:41.290Z,14.35
2022-08-05T07:47:42.259Z,13.48
2022-08-05T07:50:32.616Z,14.30
2022-08-05T07:53:21.762Z,14.30
2022-08-05T07:56:59.790Z,14.38
2022-08-05T07:59:38.608Z,14.45
2022-08-05T08:02:31.255Z,14.32
2022-08-05T08:05:41.839Z,14.73
2022-08-05T08:08:32.850Z,13.98
2022-08-05T08:11:27.380Z,16.67
2022-08-05T08:14:25.317Z,14.25
2022-08-05T08:17:15.762Z,12.93
2022-08-05T08:20:21.382Z,12.73
2022-08-05T08:24:01.104Z,13.43
2022-08-05T08:26:30.010Z,10.75
2022-08-05T08:29:29.504Z,10.20
2022-08-05T08:32:28.409Z,9.77
2022-08-05T08:35:16.725Z,9.63
2022-08-05T08:38:07.527Z,10.27
2022-08-05T08:40:57.540Z,9.07
2022-08-05T08:45:25.273Z,8.48
2022-08-05T08:46:57.323Z,8.68
2022-08-05T08:50:06.178Z,8.65
2022-08-05T08:53:02.316Z,8.80
2022-08-05T08:56:02.493Z,8.33
2022-08-05T08:58:54.078Z,9.00
2022-08-05T09:01:43.026Z,8.25
2022-08-05T09:04:47.558Z,8.27
2022-08-05T09:07:57.607Z,7.57
2022-08-05T09:10:46.818Z,7.40
2022-08-05T09:14:01.232Z,8.13
2022-08-05T09:16:48.838Z,7.38
2022-08-05T09:20:01.761Z,7.25
2022-08-05T09:23:18.625Z,6.13
2022-08-05T09:26:10.709Z,7.03
2022-08-05T09:29:10.361Z,6.00
2022-08-05T09:32:41.605Z,6.82
2022-08-05T09:35:26.378Z,6.97
2022-08-05T09:38:29.349Z,6.70
2022-08-05T09:41:17.847Z,7.00
2022-08-05T09:44:07.396Z,6.70
2022-08-05T09:47:10.353Z,6.10
2022-08-05T09:50:03.361Z,6.32
2022-08-05T09:52:58.827Z,5.47
2022-08-05T09:55:56.965Z,6.50
2022-08-05T09:58:57.898Z,6.72
2022-08-05T10:04:48.423Z,6.73
2022-08-05T10:10:59.132Z,5.40
2022-08-05T10:13:49.301Z,5.17
2022-08-05T10:16:52.247Z,4.70
2022-08-05T10:20:04.304Z,5.13
2022-08-05T10:22:52.729Z,5.30
2022-08-05T10:25:40.980Z,4.97
2022-08-05T10:28:31.323Z,4.78
2022-08-05T10:32:54.504Z,4.53
2022-08-05T10:34:30.158Z,4.55
2022-08-05T10:37:19.919Z,4.70
2022-08-05T10:40:19.852Z,4.45
2022-08-05T10:43:35.761Z,4.82
2022-08-05T10:46:24.686Z,4.97
2022-08-05T10:49:16.834Z,4.35
2022-08-05T10:52:10.544Z,4.03
2022-08-05T10:55:05.504Z,4.25
2022-08-05T10:58:11.449Z,4.43
2022-08-05T11:01:03.039Z,5.05
2022-08-05T11:04:02.741Z,5.10
2022-08-05T11:07:08.951Z,5.28
2022-08-05T11:10:09.732Z,4.55
2022-08-05T11:13:01.273Z,5.30
2022-08-05T11:16:11.092Z,4.70
2022-08-05T11:20:16.652Z,5.25
2022-08-05T11:22:42.104Z,4.78
2022-08-05T11:26:04.452Z,5.25
2022-08-05T11:28:48.373Z,4.85
2022-08-05T11:31:56.713Z,3.83
2022-08-05T11:34:47.494Z,5.18
2022-08-05T11:38:28.579Z,4.80
2022-08-05T11:41:35.122Z,3.60
2022-08-05T11:44:21.499Z,3.10
2022-08-05T11:47:49.471Z,3.78
2022-08-05T11:50:39.375Z,3.78
2022-08-05T11:53:28.290Z,3.30
2022-08-05T11:56:40.608Z,3.25
2022-08-05T11:59:33.477Z,3.35
2022-08-05T12:02:40.163Z,3.38
2022-08-05T12:08:24.830Z,3.63
2022-08-05T12:11:20.445Z,4.00
2022-08-05T12:14:10.086Z,4.78
2022-08-05T12:16:58.699Z,5.07
2022-08-05T12:20:25.539Z,6.13
2022-08-05T12:23:10.852Z,6.72
2022-08-05T12:25:59.038Z,6.88
2022-08-05T12:28:47.518Z,6.40
2022-08-05T12:31:45.865Z,6.35
2022-08-05T12:34:39.412Z,6.10
2022-08-05T12:37:31.803Z,6.25
2022-08-05T12:40:28.726Z,6.78
2022-08-05T12:43:20.636Z,7.10
2022-08-05T12:46:28.030Z,6.15
2022-08-05T12:49:19.099Z,5.85
2022-08-05T12:52:23.878Z,7.05
2022-08-05T12:55:25.553Z,6.35
2022-08-05T12:58:50.869Z,5.72
2022-08-05T13:02:01.008Z,5.80
2022-08-05T13:04:54.280Z,6.50
2022-08-05T13:08:01.278Z,6.88
2022-08-05T13:10:51.089Z,6.68
2022-08-05T13:14:04.637Z,5.22
2022-08-05T13:16:49.384Z,4.68
2022-08-05T13:19:51.616Z,4.85
2022-08-05T13:22:43.365Z,4.25
2022-08-05T13:28:44.023Z,4.70
2022-08-05T13:32:03.451Z,4.70
2022-08-05T13:34:43.912Z,5.68
2022-08-05T13:37:34.798Z,5.63
2022-08-05T13:40:37.015Z,5.40
2022-08-05T13:43:45.197Z,6.85
2022-08-05T13:47:02.554Z,6.10
2022-08-05T13:49:49.734Z,6.40
2022-08-05T13:52:38.151Z,6.55
2022-08-05T13:55:41.485Z,6.82
2022-08-05T13:58:34.525Z,7.85
2022-08-05T14:01:44.409Z,6.95
2022-08-05T14:04:56.855Z,7.93
2022-08-05T14:08:03.039Z,7.53
2022-08-05T14:10:53.939Z,7.03
2022-08-05T14:13:54.999Z,5.93
2022-08-05T14:16:45.150Z,6.55
2022-08-05T14:19:55.101Z,5.18
2022-08-05T14:22:50.152Z,4.22
2022-08-05T14:25:45.197Z,3.60
2022-08-05T14:28:34.518Z,4.20
2022-08-05T14:31:54.410Z,4.95
2022-08-05T14:34:35.253Z,2.58
2022-08-05T14:37:45.514Z,2.30
2022-08-05T14:40:33.768Z,1.55
2022-08-05T14:43:22.247Z,1.92
2022-08-05T14:46:31.323Z,1.70
2022-08-05T14:49:19.500Z,1.65
2022-08-05T14:52:10.167Z,2.03
2022-08-05T14:55:01.797Z,2.00
2022-08-05T14:57:54.267Z,1.77
2022-08-05T15:00:59.611Z,2.33
2022-08-05T15:03:48.408Z,2.10
2022-08-05T15:06:37.929Z,2.17
2022-08-05T15:09:51.374Z,2.53
2022-08-05T15:12:57.707Z,2.08
2022-08-05T15:15:55.017Z,2.47
2022-08-05T15:18:47.156Z,2.60
2022-08-05T15:21:35.574Z,2.40
2022-08-05T15:24:23.871Z,2.40
2022-08-05T15:27:12.811Z,1.77
2022-08-05T15:30:04.512Z,2.00
2022-08-05T15:32:53.141Z,1.55
2022-08-05T15:35:45.542Z,1.30
2022-08-05T15:38:40.861Z,1.33
2022-08-05T15:41:56.455Z,1.17
2022-08-05T15:44:41.767Z,0.90
2022-08-05T15:47:31.788Z,1.02
2022-08-05T15:50:25.240Z,1.20
2022-08-05T15:53:14.419Z,1.20
2022-08-05T15:56:05.593Z,1.05
2022-08-05T15:58:55.352Z,0.93
2022-08-05T16:01:52.350Z,1.10
2022-08-05T16:04:43.430Z,1.60
2022-08-05T16:07:33.132Z,1.75
2022-08-05T16:10:25.397Z,1.80
2022-08-05T16:13:23.745Z,1.60
2022-08-05T16:16:12.593Z,1.95
2022-08-05T16:19:04.367Z,1.42
2022-08-05T16:21:58.713Z,1.70
2022-08-05T16:24:52.131Z,1.50
2022-08-05T16:28:00.942Z,1.75
2022-08-05T16:30:50.380Z,1.65
2022-08-05T16:33:41.370Z,1.70
2022-08-05T16:36:30.113Z,1.55
2022-08-05T16:39:20.800Z,2.03
2022-08-05T16:42:14.008Z,1.58
2022-08-05T16:46:07.177Z,1.58
2022-08-05T16:48:25.831Z,1.08
2022-08-05T16:51:21.636Z,1.48
2022-08-05T16:54:17.342Z,1.27
2022-08-05T16:57:22.198Z,1.40
2022-08-05T17:00:12.540Z,1.15
2022-08-05T17:03:02.481Z,1.20
2022-08-05T17:05:54.164Z,1.20
2022-08-05T17:08:53.598Z,1.10
2022-08-05T17:11:48.679Z,1.17
2022-08-05T17:14:40.395Z,0.98
2022-08-05T17:17:42.358Z,1.10
2022-08-05T17:20:31.334Z,1.05
2022-08-05T17:24:04.877Z,1.40
2022-08-05T17:26:27.933Z,1.00
2022-08-05T17:29:16.439Z,1.23
2022-08-05T17:32:06.683Z,1.13
2022-08-05T17:34:58.280Z,1.20
2022-08-05T17:37:48.438Z,1.13
2022-08-05T17:40:37.296Z,1.40
2022-08-05T17:43:50.299Z,1.20
2022-08-05T17:46:36.844Z,1.42
2022-08-05T17:49:26.422Z,1.20
2022-08-05T17:52:35.050Z,1.40
2022-08-05T17:55:42.096Z,1.70
2022-08-05T17:58:32.817Z,1.13
2022-08-05T18:01:21.314Z,1.20
2022-08-05T18:04:09.674Z,1.55
2022-08-05T18:09:59.765Z,1.37
2022-08-05T18:12:51.036Z,1.20
2022-08-05T18:15:39.496Z,1.10
2022-08-05T18:18:29.442Z,1.30
2022-08-05T18:21:19.549Z,1.33
2022-08-05T18:24:10.367Z,2.07
2022-08-05T18:27:01.230Z,1.45
2022-08-05T18:29:54.308Z,1.10
2022-08-05T18:32:53.694Z,0.98
2022-08-05T18:36:00.068Z,1.27
2022-08-05T18:38:52.717Z,1.60
2022-08-05T18:41:55.278Z,1.35
2022-08-05T18:44:56.291Z,1.30
2022-08-05T18:47:56.410Z,1.20
2022-08-05T18:52:02.750Z,1.30
2022-08-05T18:54:10.693Z,1.40
2022-08-05T18:57:01.049Z,1.50
2022-08-05T19:02:52.686Z,1.33
2022-08-05T19:06:12.267Z,1.45
2022-08-05T19:08:49.334Z,1.70
2022-08-05T19:11:58.654Z,1.45
2022-08-05T19:15:00.568Z,1.50
2022-08-05T19:18:08.849Z,1.50
2022-08-05T19:20:59.557Z,1.65
2022-08-05T19:24:07.482Z,1.80
2022-08-05T19:26:56.166Z,1.77
2022-08-05T19:29:47.078Z,1.90
2022-08-05T19:32:37.997Z,1.58
2022-08-05T19:35:26.946Z,1.70
2022-08-05T19:38:36.343Z,1.77
2022-08-05T19:41:58.124Z,1.67
2022-08-05T19:44:47.828Z,1.95
2022-08-05T19:47:59.372Z,2.00
2022-08-05T19:50:58.442Z,1.90
2022-08-05T19:54:03.527Z,1.90
2022-08-05T19:56:54.974Z,1.90
2022-08-05T19:59:55.889Z,1.92
2022-08-05T20:02:52.636Z,2.30
2022-08-05T20:05:50.096Z,2.30
2022-08-05T20:08:44.242Z,2.22
2022-08-05T20:11:37.621Z,2.55
2022-08-05T20:14:27.012Z,2.53
2022-08-05T20:17:19.054Z,2.42
2022-08-05T20:20:16.486Z,2.42
2022-08-05T20:23:19.184Z,2.40
2022-08-05T20:26:08.947Z,2.72
2022-08-05T20:29:07.642Z,2.22
2022-08-05T20:32:18.913Z,2.85
2022-08-05T20:35:08.465Z,2.95
2022-08-05T20:38:05.417Z,2.95
2022-08-05T20:40:56.323Z,2.90
2022-08-05T20:43:58.689Z,2.90
2022-08-05T20:46:50.264Z,3.00
2022-08-05T20:49:40.160Z,2.97
2022-08-05T20:52:28.471Z,3.63
2022-08-05T20:55:56.364Z,3.78
2022-08-05T20:58:26.269Z,3.47
2022-08-05T21:01:17.475Z,3.67
2022-08-05T21:04:07.183Z,3.75
2022-08-05T21:06:58.178Z,3.30
2022-08-05T21:09:50.145Z,2.33
2022-08-05T21:12:58.356Z,2.35
2022-08-05T21:15:51.465Z,1.98
2022-08-05T21:18:42.899Z,2.38
2022-08-05T21:21:39.536Z,1.35
2022-08-05T21:24:32.905Z,1.88
2022-08-05T21:27:25.000Z,1.52
2022-08-05T21:30:17.626Z,1.65
2022-08-05T21:33:10.891Z,1.58
2022-08-05T21:36:11.011Z,1.55
2022-08-05T21:38:59.749Z,1.42
2022-08-05T21:41:52.828Z,1.63
2022-08-05T21:44:49.633Z,1.95
2022-08-05T21:47:57.025Z,1.40
2022-08-05T21:50:53.165Z,1.48
2022-08-05T21:53:42.658Z,1.88
2022-08-05T21:56:51.429Z,1.48
2022-08-05T22:00:01.627Z,1.33
2022-08-05T22:02:51.103Z,1.50
2022-08-05T22:05:48.754Z,1.10
2022-08-05T22:08:37.498Z,1.20
2022-08-05T22:11:35.192Z,1.10
2022-08-05T22:14:35.723Z,0.80
2022-08-05T22:17:26.259Z,0.90
2022-08-05T22:20:15.805Z,1.35
2022-08-05T22:23:22.653Z,0.68
2022-08-05T22:26:28.504Z,0.52
2022-08-05T22:29:18.786Z,0.68
2022-08-05T22:32:09.892Z,0.70
2022-08-05T22:34:58.321Z,0.50
2022-08-05T22:37:58.061Z,0.60
2022-08-05T22:40:49.509Z,0.30
2022-08-05T22:43:43.327Z,0.93
2022-08-05T22:46:31.542Z,0.40
2022-08-05T22:50:18.244Z,0.43
2022-08-05T22:52:32.317Z,1.00
2022-08-05T22:55:26.020Z,0.50
2022-08-05T22:58:14.517Z,0.60
2022-08-05T23:01:02.973Z,0.60
2022-08-05T23:03:58.967Z,0.50
2022-08-05T23:06:48.044Z,0.50
2022-08-05T23:09:57.224Z,0.70
2022-08-05T23:12:45.836Z,0.47
2022-08-05T23:15:34.955Z,0.75
2022-08-05T23:18:23.938Z,0.70
2022-08-05T23:21:12.116Z,0.70
2022-08-05T23:24:11.080Z,0.60
2022-08-05T23:26:59.830Z,0.50
2022-08-05T23:29:50.565Z,0.50
2022-08-05T23:32:40.703Z,0.47
2022-08-05T23:35:34.445Z,0.70
2022-08-05T23:38:22.824Z,0.40
2022-08-05T23:41:12.930Z,0.50
2022-08-05T23:44:04.647Z,0.50
2022-08-05T23:46:56.245Z,0.60
2022-08-05T23:49:45.662Z,0.50
2022-08-05T23:52:35.977Z,0.40
2022-08-05T23:55:36.959Z,0.70
2022-08-05T23:58:31.867Z,0.55
